sensor_id;sensor_type;location;lat;lon;timestamp;temperature;humidity
19025;DHT22;9645;51.448;6.260;2024-02-26T00:01:54;6.80;1.00
19025;DHT22;9645;51.448;6.260;2024-02-26T00:04:22;7.30;1.00
19025;DHT22;9645;51.448;6.260;2024-02-26T00:06:49;6.60;38.80
19025;DHT22;9645;51.448;6.260;2024-02-26T00:09:19;6.60;99.90
19025;DHT22;9645;51.448;6.260;2024-02-26T00:11:46;6.60;1.00
19025;DHT22;9645;51.448;6.260;2024-02-26T00:14:13;6.60;1.00
19025;DHT22;9645;51.448;6.260;2024-02-26T00:16:41;6.50;1.00
19025;DHT22;9645;51.448;6.260;2024-02-26T00:19:10;6.60;1.00
19025;DHT22;9645;51.448;6.260;2024-02-26T00:21:40;6.60;99.90
19025;DHT22;9645;51.448;6.260;2024-02-26T00:24:07;6.50;1.00
19025;DHT22;9645;51.448;6.260;2024-02-26T00:26:34;6.50;99.90
19025;DHT22;9645;51.448;6.260;2024-02-26T00:29:01;6.50;99.90
19025;DHT22;9645;51.448;6.260;2024-02-26T00:31:28;6.50;1.00
19025;DHT22;9645;51.448;6.260;2024-02-26T00:33:57;6.40;1.00
19025;DHT22;9645;51.448;6.260;2024-02-26T00:36:24;6.50;1.00
19025;DHT22;9645;51.448;6.260;2024-02-26T00:38:51;6.40;1.00
19025;DHT22;9645;51.448;6.260;2024-02-26T00:41:18;6.40;18.40
19025;DHT22;9645;51.448;6.260;2024-02-26T00:43:45;6.40;99.90
19025;DHT22;9645;51.448;6.260;2024-02-26T00:46:11;6.50;1.00
19025;DHT22;9645;51.448;6.260;2024-02-26T00:48:38;6.40;77.60
19025;DHT22;9645;51.448;6.260;2024-02-26T00:51:06;6.50;99.90
19025;DHT22;9645;51.448;6.260;2024-02-26T00:53:34;6.40;1.00
19025;DHT22;9645;51.448;6.260;2024-02-26T00:56:01;6.40;99.90
19025;DHT22;9645;51.448;6.260;2024-02-26T00:58:28;6.40;1.00
19025;DHT22;9645;51.448;6.260;2024-02-26T01:00:55;6.40;60.80
19025;DHT22;9645;51.448;6.260;2024-02-26T01:03:22;6.40;99.90
19025;DHT22;9645;51.448;6.260;2024-02-26T01:05:48;6.30;1.00
19025;DHT22;9645;51.448;6.260;2024-02-26T01:08:17;6.30;1.00
19025;DHT22;9645;51.448;6.260;2024-02-26T01:10:44;6.40;99.90
19025;DHT22;9645;51.448;6.260;2024-02-26T01:13:11;6.40;1.00
19025;DHT22;9645;51.448;6.260;2024-02-26T01:15:38;6.40;99.90
19025;DHT22;9645;51.448;6.260;2024-02-26T01:18:04;6.30;1.00
19025;DHT22;9645;51.448;6.260;2024-02-26T01:20:31;6.30;1.00
19025;DHT22;9645;51.448;6.260;2024-02-26T01:22:58;6.50;1.00
19025;DHT22;9645;51.448;6.260;2024-02-26T01:25:27;6.30;33.30
19025;DHT22;9645;51.448;6.260;2024-02-26T01:27:53;6.30;99.90
19025;DHT22;9645;51.448;6.260;2024-02-26T01:30:21;6.20;99.90
19025;DHT22;9645;51.448;6.260;2024-02-26T01:32:48;6.30;1.00
19025;DHT22;9645;51.448;6.260;2024-02-26T01:35:15;6.20;1.00
19025;DHT22;9645;51.448;6.260;2024-02-26T01:37:42;6.20;7.20
19025;DHT22;9645;51.448;6.260;2024-02-26T01:40:10;6.20;1.00
19025;DHT22;9645;51.448;6.260;2024-02-26T01:42:39;6.20;1.00
19025;DHT22;9645;51.448;6.260;2024-02-26T01:45:09;6.20;1.00
19025;DHT22;9645;51.448;6.260;2024-02-26T01:47:40;6.20;1.00
19025;DHT22;9645;51.448;6.260;2024-02-26T01:50:08;6.20;1.00
19025;DHT22;9645;51.448;6.260;2024-02-26T01:52:35;6.20;1.00
19025;DHT22;9645;51.448;6.260;2024-02-26T01:55:03;5.90;1.00
19025;DHT22;9645;51.448;6.260;2024-02-26T01:57:30;6.10;96.50
19025;DHT22;9645;51.448;6.260;2024-02-26T01:59:58;6.10;99.90
19025;DHT22;9645;51.448;6.260;2024-02-26T02:02:25;6.20;1.00
19025;DHT22;9645;51.448;6.260;2024-02-26T02:04:52;6.10;99.90
19025;DHT22;9645;51.448;6.260;2024-02-26T02:07:21;6.30;1.00
19025;DHT22;9645;51.448;6.260;2024-02-26T02:09:49;6.20;1.00
19025;DHT22;9645;51.448;6.260;2024-02-26T02:12:17;6.20;1.00
19025;DHT22;9645;51.448;6.260;2024-02-26T02:14:44;6.10;1.00
19025;DHT22;9645;51.448;6.260;2024-02-26T02:17:14;6.20;1.00
19025;DHT22;9645;51.448;6.260;2024-02-26T02:19:41;6.30;1.00
19025;DHT22;9645;51.448;6.260;2024-02-26T02:22:10;6.30;1.00
19025;DHT22;9645;51.448;6.260;2024-02-26T02:24:36;6.30;1.00
19025;DHT22;9645;51.448;6.260;2024-02-26T02:27:04;6.30;1.00
19025;DHT22;9645;51.448;6.260;2024-02-26T02:29:31;6.30;1.00
19025;DHT22;9645;51.448;6.260;2024-02-26T02:31:59;6.30;1.00
19025;DHT22;9645;51.448;6.260;2024-02-26T02:34:28;6.30;1.00
19025;DHT22;9645;51.448;6.260;2024-02-26T02:36:55;6.30;1.00
19025;DHT22;9645;51.448;6.260;2024-02-26T02:39:23;6.30;1.00
19025;DHT22;9645;51.448;6.260;2024-02-26T02:41:50;6.30;1.00
19025;DHT22;9645;51.448;6.260;2024-02-26T02:44:17;6.20;1.00
19025;DHT22;9645;51.448;6.260;2024-02-26T02:46:44;6.20;99.90
19025;DHT22;9645;51.448;6.260;2024-02-26T02:49:11;6.10;99.90
19025;DHT22;9645;51.448;6.260;2024-02-26T02:51:38;6.10;1.00
19025;DHT22;9645;51.448;6.260;2024-02-26T02:54:05;6.20;1.00
19025;DHT22;9645;51.448;6.260;2024-02-26T02:56:33;6.20;99.90
19025;DHT22;9645;51.448;6.260;2024-02-26T02:59:01;6.10;99.90
19025;DHT22;9645;51.448;6.260;2024-02-26T03:01:28;6.20;1.00
19025;DHT22;9645;51.448;6.260;2024-02-26T03:03:55;6.10;99.90
19025;DHT22;9645;51.448;6.260;2024-02-26T03:06:22;6.00;1.00
19025;DHT22;9645;51.448;6.260;2024-02-26T03:08:52;6.10;1.00
19025;DHT22;9645;51.448;6.260;2024-02-26T03:11:20;6.10;1.00
19025;DHT22;9645;51.448;6.260;2024-02-26T03:13:48;6.10;1.00
19025;DHT22;9645;51.448;6.260;2024-02-26T03:16:17;6.10;99.90
19025;DHT22;9645;51.448;6.260;2024-02-26T03:18:44;6.10;99.90
19025;DHT22;9645;51.448;6.260;2024-02-26T03:21:11;6.00;99.90
19025;DHT22;9645;51.448;6.260;2024-02-26T03:23:38;5.90;99.90
19025;DHT22;9645;51.448;6.260;2024-02-26T03:26:05;6.00;1.00
19025;DHT22;9645;51.448;6.260;2024-02-26T03:28:32;6.00;1.00
19025;DHT22;9645;51.448;6.260;2024-02-26T03:31:01;6.00;1.00
19025;DHT22;9645;51.448;6.260;2024-02-26T03:33:28;5.90;1.00
19025;DHT22;9645;51.448;6.260;2024-02-26T03:35:54;5.90;1.00
19025;DHT22;9645;51.448;6.260;2024-02-26T03:38:21;5.80;1.00
19025;DHT22;9645;51.448;6.260;2024-02-26T03:40:48;5.80;3.20
19025;DHT22;9645;51.448;6.260;2024-02-26T03:43:16;5.70;91.10
19025;DHT22;9645;51.448;6.260;2024-02-26T03:45:43;5.70;99.90
19025;DHT22;9645;51.448;6.260;2024-02-26T03:48:11;5.70;99.90
19025;DHT22;9645;51.448;6.260;2024-02-26T03:50:38;5.70;99.90
19025;DHT22;9645;51.448;6.260;2024-02-26T03:53:05;5.60;99.90
19025;DHT22;9645;51.448;6.260;2024-02-26T03:55:34;5.50;99.90
19025;DHT22;9645;51.448;6.260;2024-02-26T03:58:01;5.50;99.90
19025;DHT22;9645;51.448;6.260;2024-02-26T04:00:28;5.60;99.90
19025;DHT22;9645;51.448;6.260;2024-02-26T04:02:56;5.50;99.90
19025;DHT22;9645;51.448;6.260;2024-02-26T04:05:24;5.50;99.90
19025;DHT22;9645;51.448;6.260;2024-02-26T04:07:51;5.50;99.90
19025;DHT22;9645;51.448;6.260;2024-02-26T04:10:18;5.50;99.90
19025;DHT22;9645;51.448;6.260;2024-02-26T04:12:45;5.50;99.90
19025;DHT22;9645;51.448;6.260;2024-02-26T04:15:12;5.50;99.90
19025;DHT22;9645;51.448;6.260;2024-02-26T04:17:40;5.50;99.90
19025;DHT22;9645;51.448;6.260;2024-02-26T04:20:12;5.50;99.90
19025;DHT22;9645;51.448;6.260;2024-02-26T04:22:41;5.50;99.90
19025;DHT22;9645;51.448;6.260;2024-02-26T04:25:08;5.50;99.90
19025;DHT22;9645;51.448;6.260;2024-02-26T04:27:35;5.50;99.90
19025;DHT22;9645;51.448;6.260;2024-02-26T04:30:05;5.40;99.90
19025;DHT22;9645;51.448;6.260;2024-02-26T04:32:32;5.40;99.90
19025;DHT22;9645;51.448;6.260;2024-02-26T04:34:59;5.40;99.90
19025;DHT22;9645;51.448;6.260;2024-02-26T04:37:26;5.40;99.90
19025;DHT22;9645;51.448;6.260;2024-02-26T04:39:58;5.50;99.90
19025;DHT22;9645;51.448;6.260;2024-02-26T04:42:25;5.50;99.90
19025;DHT22;9645;51.448;6.260;2024-02-26T04:44:52;5.40;99.90
19025;DHT22;9645;51.448;6.260;2024-02-26T04:47:19;5.50;99.90
19025;DHT22;9645;51.448;6.260;2024-02-26T04:49:47;5.40;99.90
19025;DHT22;9645;51.448;6.260;2024-02-26T04:52:14;5.50;99.90
19025;DHT22;9645;51.448;6.260;2024-02-26T04:54:41;5.40;99.90
19025;DHT22;9645;51.448;6.260;2024-02-26T04:57:10;5.40;99.90
19025;DHT22;9645;51.448;6.260;2024-02-26T04:59:37;5.40;99.90
19025;DHT22;9645;51.448;6.260;2024-02-26T05:02:04;5.30;99.90
19025;DHT22;9645;51.448;6.260;2024-02-26T05:04:30;5.40;99.90
19025;DHT22;9645;51.448;6.260;2024-02-26T05:06:57;5.30;99.90
19025;DHT22;9645;51.448;6.260;2024-02-26T05:09:24;5.30;99.90
19025;DHT22;9645;51.448;6.260;2024-02-26T05:11:51;5.30;99.90
19025;DHT22;9645;51.448;6.260;2024-02-26T05:14:19;5.30;99.90
19025;DHT22;9645;51.448;6.260;2024-02-26T05:16:47;5.30;99.90
19025;DHT22;9645;51.448;6.260;2024-02-26T05:19:14;5.30;99.90
19025;DHT22;9645;51.448;6.260;2024-02-26T05:21:41;5.30;99.90
19025;DHT22;9645;51.448;6.260;2024-02-26T05:24:09;5.20;99.90
19025;DHT22;9645;51.448;6.260;2024-02-26T05:26:36;5.20;99.90
19025;DHT22;9645;51.448;6.260;2024-02-26T05:29:03;5.20;99.90
19025;DHT22;9645;51.448;6.260;2024-02-26T05:31:32;5.10;99.90
19025;DHT22;9645;51.448;6.260;2024-02-26T05:33:58;5.10;99.90
19025;DHT22;9645;51.448;6.260;2024-02-26T05:36:25;5.10;99.90
19025;DHT22;9645;51.448;6.260;2024-02-26T05:38:54;5.10;99.90
19025;DHT22;9645;51.448;6.260;2024-02-26T05:41:21;5.10;99.90
19025;DHT22;9645;51.448;6.260;2024-02-26T05:43:51;5.10;99.90
19025;DHT22;9645;51.448;6.260;2024-02-26T05:46:19;5.10;99.90
19025;DHT22;9645;51.448;6.260;2024-02-26T05:48:50;5.10;99.90
19025;DHT22;9645;51.448;6.260;2024-02-26T05:51:18;5.10;99.90
19025;DHT22;9645;51.448;6.260;2024-02-26T05:53:45;5.10;99.90
19025;DHT22;9645;51.448;6.260;2024-02-26T05:56:19;5.10;99.90
19025;DHT22;9645;51.448;6.260;2024-02-26T05:58:46;5.10;99.90
19025;DHT22;9645;51.448;6.260;2024-02-26T06:01:15;5.10;99.90
19025;DHT22;9645;51.448;6.260;2024-02-26T06:03:42;5.10;99.90
19025;DHT22;9645;51.448;6.260;2024-02-26T06:06:11;5.10;99.90
19025;DHT22;9645;51.448;6.260;2024-02-26T06:08:39;5.10;99.90
19025;DHT22;9645;51.448;6.260;2024-02-26T06:11:07;5.10;99.90
19025;DHT22;9645;51.448;6.260;2024-02-26T06:13:34;5.10;99.90
19025;DHT22;9645;51.448;6.260;2024-02-26T06:16:01;5.10;99.90
19025;DHT22;9645;51.448;6.260;2024-02-26T06:18:28;5.10;99.90
19025;DHT22;9645;51.448;6.260;2024-02-26T06:20:55;5.20;99.90
19025;DHT22;9645;51.448;6.260;2024-02-26T06:23:23;5.10;99.90
19025;DHT22;9645;51.448;6.260;2024-02-26T06:25:51;5.10;99.90
19025;DHT22;9645;51.448;6.260;2024-02-26T06:28:18;5.10;99.90
19025;DHT22;9645;51.448;6.260;2024-02-26T06:30:45;4.70;99.90
19025;DHT22;9645;51.448;6.260;2024-02-26T06:33:12;5.10;99.90
19025;DHT22;9645;51.448;6.260;2024-02-26T06:35:39;5.10;99.90
19025;DHT22;9645;51.448;6.260;2024-02-26T06:38:07;5.10;99.90
19025;DHT22;9645;51.448;6.260;2024-02-26T06:40:36;5.10;99.90
19025;DHT22;9645;51.448;6.260;2024-02-26T06:43:03;5.10;99.90
19025;DHT22;9645;51.448;6.260;2024-02-26T06:45:30;5.10;99.90
19025;DHT22;9645;51.448;6.260;2024-02-26T06:47:58;5.10;99.90
19025;DHT22;9645;51.448;6.260;2024-02-26T06:50:25;5.10;99.90
19025;DHT22;9645;51.448;6.260;2024-02-26T06:52:55;5.10;99.90
19025;DHT22;9645;51.448;6.260;2024-02-26T06:55:27;5.10;99.90
19025;DHT22;9645;51.448;6.260;2024-02-26T06:57:56;5.10;99.90
19025;DHT22;9645;51.448;6.260;2024-02-26T07:00:22;5.10;99.90
19025;DHT22;9645;51.448;6.260;2024-02-26T07:02:49;5.10;99.90
19025;DHT22;9645;51.448;6.260;2024-02-26T07:05:16;5.10;99.90
19025;DHT22;9645;51.448;6.260;2024-02-26T07:07:43;5.30;99.90
19025;DHT22;9645;51.448;6.260;2024-02-26T07:10:11;5.60;99.90
19025;DHT22;9645;51.448;6.260;2024-02-26T07:12:38;5.70;99.90
19025;DHT22;9645;51.448;6.260;2024-02-26T07:15:07;6.10;99.90
19025;DHT22;9645;51.448;6.260;2024-02-26T07:17:34;5.10;99.90
19025;DHT22;9645;51.448;6.260;2024-02-26T07:20:02;6.00;99.90
19025;DHT22;9645;51.448;6.260;2024-02-26T07:22:30;5.20;99.90
19025;DHT22;9645;51.448;6.260;2024-02-26T07:24:57;5.10;99.90
19025;DHT22;9645;51.448;6.260;2024-02-26T07:27:24;5.20;99.90
19025;DHT22;9645;51.448;6.260;2024-02-26T07:29:51;5.80;99.90
19025;DHT22;9645;51.448;6.260;2024-02-26T07:32:20;6.30;99.90
19025;DHT22;9645;51.448;6.260;2024-02-26T07:34:48;5.20;99.90
19025;DHT22;9645;51.448;6.260;2024-02-26T07:37:15;5.30;99.90
19025;DHT22;9645;51.448;6.260;2024-02-26T07:39:42;5.30;99.90
19025;DHT22;9645;51.448;6.260;2024-02-26T07:42:10;5.70;99.90
19025;DHT22;9645;51.448;6.260;2024-02-26T07:44:38;5.30;99.90
19025;DHT22;9645;51.448;6.260;2024-02-26T07:47:08;5.30;99.90
19025;DHT22;9645;51.448;6.260;2024-02-26T07:49:38;5.30;99.90
19025;DHT22;9645;51.448;6.260;2024-02-26T07:52:05;5.40;99.90
19025;DHT22;9645;51.448;6.260;2024-02-26T07:54:32;5.30;99.90
19025;DHT22;9645;51.448;6.260;2024-02-26T07:56:59;6.00;99.90
19025;DHT22;9645;51.448;6.260;2024-02-26T07:59:27;5.30;99.90
19025;DHT22;9645;51.448;6.260;2024-02-26T08:01:54;5.30;99.90
19025;DHT22;9645;51.448;6.260;2024-02-26T08:04:28;5.30;99.90
19025;DHT22;9645;51.448;6.260;2024-02-26T08:06:57;5.30;99.90
19025;DHT22;9645;51.448;6.260;2024-02-26T08:09:24;5.30;99.90
19025;DHT22;9645;51.448;6.260;2024-02-26T08:11:51;5.30;99.90
19025;DHT22;9645;51.448;6.260;2024-02-26T08:14:18;5.30;99.90
19025;DHT22;9645;51.448;6.260;2024-02-26T08:16:46;5.30;99.90
19025;DHT22;9645;51.448;6.260;2024-02-26T08:19:14;5.30;99.90
19025;DHT22;9645;51.448;6.260;2024-02-26T08:21:43;5.20;99.90
19025;DHT22;9645;51.448;6.260;2024-02-26T08:24:11;5.30;99.90
19025;DHT22;9645;51.448;6.260;2024-02-26T08:26:38;5.30;99.90
19025;DHT22;9645;51.448;6.260;2024-02-26T08:29:06;5.80;99.90
19025;DHT22;9645;51.448;6.260;2024-02-26T08:31:33;5.30;99.90
19025;DHT22;9645;51.448;6.260;2024-02-26T08:34:03;5.50;99.90
19025;DHT22;9645;51.448;6.260;2024-02-26T08:36:30;5.40;99.90
19025;DHT22;9645;51.448;6.260;2024-02-26T08:38:58;5.40;99.90
19025;DHT22;9645;51.448;6.260;2024-02-26T08:41:27;5.40;99.90
19025;DHT22;9645;51.448;6.260;2024-02-26T08:43:54;6.10;99.90
19025;DHT22;9645;51.448;6.260;2024-02-26T08:46:21;5.50;99.90
19025;DHT22;9645;51.448;6.260;2024-02-26T08:48:48;5.50;99.90
19025;DHT22;9645;51.448;6.260;2024-02-26T08:51:15;6.20;99.90
19025;DHT22;9645;51.448;6.260;2024-02-26T08:53:42;5.40;99.90
19025;DHT22;9645;51.448;6.260;2024-02-26T08:56:09;5.60;99.90
19025;DHT22;9645;51.448;6.260;2024-02-26T08:58:38;5.90;99.90
19025;DHT22;9645;51.448;6.260;2024-02-26T09:01:05;6.60;99.90
19025;DHT22;9645;51.448;6.260;2024-02-26T09:03:32;5.60;99.90
19025;DHT22;9645;51.448;6.260;2024-02-26T09:05:59;6.40;99.90
19025;DHT22;9645;51.448;6.260;2024-02-26T09:08:26;6.40;99.90
19025;DHT22;9645;51.448;6.260;2024-02-26T09:10:53;5.40;99.90
19025;DHT22;9645;51.448;6.260;2024-02-26T09:13:20;5.40;99.90
19025;DHT22;9645;51.448;6.260;2024-02-26T09:15:49;5.40;99.90
19025;DHT22;9645;51.448;6.260;2024-02-26T09:18:16;6.60;99.90
19025;DHT22;9645;51.448;6.260;2024-02-26T09:20:43;6.00;99.90
19025;DHT22;9645;51.448;6.260;2024-02-26T09:23:10;5.30;99.90
19025;DHT22;9645;51.448;6.260;2024-02-26T09:25:37;6.10;99.90
19025;DHT22;9645;51.448;6.260;2024-02-26T09:28:04;5.50;99.90
19025;DHT22;9645;51.448;6.260;2024-02-26T09:30:31;5.50;99.90
19025;DHT22;9645;51.448;6.260;2024-02-26T09:33:00;5.90;99.90
19025;DHT22;9645;51.448;6.260;2024-02-26T09:35:27;5.40;99.90
19025;DHT22;9645;51.448;6.260;2024-02-26T09:37:54;5.50;99.90
19025;DHT22;9645;51.448;6.260;2024-02-26T09:40:21;5.50;99.90
19025;DHT22;9645;51.448;6.260;2024-02-26T09:42:53;5.70;99.90
19025;DHT22;9645;51.448;6.260;2024-02-26T09:45:25;5.70;99.90
19025;DHT22;9645;51.448;6.260;2024-02-26T09:47:55;5.50;99.90
19025;DHT22;9645;51.448;6.260;2024-02-26T09:50:25;5.50;99.90
19025;DHT22;9645;51.448;6.260;2024-02-26T09:52:53;5.60;99.90
19025;DHT22;9645;51.448;6.260;2024-02-26T09:55:20;5.50;99.90
19025;DHT22;9645;51.448;6.260;2024-02-26T09:57:48;5.50;99.90
19025;DHT22;9645;51.448;6.260;2024-02-26T10:00:18;5.80;99.90
19025;DHT22;9645;51.448;6.260;2024-02-26T10:02:46;5.60;99.90
19025;DHT22;9645;51.448;6.260;2024-02-26T10:05:17;5.60;99.90
19025;DHT22;9645;51.448;6.260;2024-02-26T10:07:47;5.50;99.90
19025;DHT22;9645;51.448;6.260;2024-02-26T10:10:15;5.60;99.90
19025;DHT22;9645;51.448;6.260;2024-02-26T10:12:43;5.50;99.90
19025;DHT22;9645;51.448;6.260;2024-02-26T10:15:10;5.60;99.90
19025;DHT22;9645;51.448;6.260;2024-02-26T10:17:38;5.60;99.90
19025;DHT22;9645;51.448;6.260;2024-02-26T10:20:12;5.60;99.90
19025;DHT22;9645;51.448;6.260;2024-02-26T10:22:41;5.60;99.90
19025;DHT22;9645;51.448;6.260;2024-02-26T10:25:10;5.80;99.90
19025;DHT22;9645;51.448;6.260;2024-02-26T10:27:40;5.80;99.90
19025;DHT22;9645;51.448;6.260;2024-02-26T10:30:16;5.70;99.90
19025;DHT22;9645;51.448;6.260;2024-02-26T10:32:44;5.70;99.90
19025;DHT22;9645;51.448;6.260;2024-02-26T10:35:12;7.00;99.90
19025;DHT22;9645;51.448;6.260;2024-02-26T10:37:39;5.90;99.90
19025;DHT22;9645;51.448;6.260;2024-02-26T10:40:12;5.90;99.90
19025;DHT22;9645;51.448;6.260;2024-02-26T10:42:39;5.70;99.90
19025;DHT22;9645;51.448;6.260;2024-02-26T10:45:07;5.90;99.90
19025;DHT22;9645;51.448;6.260;2024-02-26T10:47:34;5.70;99.90
19025;DHT22;9645;51.448;6.260;2024-02-26T10:50:02;5.80;99.90
19025;DHT22;9645;51.448;6.260;2024-02-26T10:52:31;5.70;99.90
19025;DHT22;9645;51.448;6.260;2024-02-26T10:55:01;5.70;99.90
19025;DHT22;9645;51.448;6.260;2024-02-26T10:57:33;5.70;99.90
19025;DHT22;9645;51.448;6.260;2024-02-26T11:00:03;5.80;99.90
19025;DHT22;9645;51.448;6.260;2024-02-26T11:02:32;5.70;99.90
19025;DHT22;9645;51.448;6.260;2024-02-26T11:05:02;6.10;99.90
19025;DHT22;9645;51.448;6.260;2024-02-26T11:07:30;6.40;99.90
19025;DHT22;9645;51.448;6.260;2024-02-26T11:09:58;5.80;99.90
19025;DHT22;9645;51.448;6.260;2024-02-26T11:12:25;5.80;99.90
19025;DHT22;9645;51.448;6.260;2024-02-26T11:14:56;5.90;99.90
19025;DHT22;9645;51.448;6.260;2024-02-26T11:17:26;6.10;99.90
19025;DHT22;9645;51.448;6.260;2024-02-26T11:19:55;6.30;99.90
19025;DHT22;9645;51.448;6.260;2024-02-26T11:22:23;6.50;99.90
19025;DHT22;9645;51.448;6.260;2024-02-26T11:24:52;6.20;99.90
19025;DHT22;9645;51.448;6.260;2024-02-26T11:27:23;6.20;99.90
19025;DHT22;9645;51.448;6.260;2024-02-26T11:29:53;6.10;99.90
19025;DHT22;9645;51.448;6.260;2024-02-26T11:32:21;6.10;99.90
19025;DHT22;9645;51.448;6.260;2024-02-26T11:34:49;6.10;99.90
19025;DHT22;9645;51.448;6.260;2024-02-26T11:37:17;6.20;99.90
19025;DHT22;9645;51.448;6.260;2024-02-26T11:39:45;6.20;99.90
19025;DHT22;9645;51.448;6.260;2024-02-26T11:42:15;6.10;99.90
19025;DHT22;9645;51.448;6.260;2024-02-26T11:44:44;6.10;99.90
19025;DHT22;9645;51.448;6.260;2024-02-26T11:47:12;6.10;99.90
19025;DHT22;9645;51.448;6.260;2024-02-26T11:49:42;6.30;99.90
19025;DHT22;9645;51.448;6.260;2024-02-26T11:52:10;6.30;99.90
19025;DHT22;9645;51.448;6.260;2024-02-26T11:54:44;6.30;99.90
19025;DHT22;9645;51.448;6.260;2024-02-26T11:57:23;6.40;99.90
19025;DHT22;9645;51.448;6.260;2024-02-26T11:59:50;6.40;99.90
19025;DHT22;9645;51.448;6.260;2024-02-26T12:02:46;6.30;99.90
19025;DHT22;9645;51.448;6.260;2024-02-26T12:05:16;6.40;99.90
19025;DHT22;9645;51.448;6.260;2024-02-26T12:07:45;6.40;99.90
19025;DHT22;9645;51.448;6.260;2024-02-26T12:10:20;6.70;99.90
19025;DHT22;9645;51.448;6.260;2024-02-26T12:12:53;6.50;99.90
19025;DHT22;9645;51.448;6.260;2024-02-26T12:15:22;6.40;99.90
19025;DHT22;9645;51.448;6.260;2024-02-26T12:17:52;6.40;99.90
19025;DHT22;9645;51.448;6.260;2024-02-26T12:20:21;6.40;99.90
19025;DHT22;9645;51.448;6.260;2024-02-26T12:22:50;6.50;99.90
19025;DHT22;9645;51.448;6.260;2024-02-26T12:25:20;6.40;99.90
19025;DHT22;9645;51.448;6.260;2024-02-26T12:27:48;6.60;99.90
19025;DHT22;9645;51.448;6.260;2024-02-26T12:30:16;6.40;99.90
19025;DHT22;9645;51.448;6.260;2024-02-26T12:32:44;6.40;99.90
19025;DHT22;9645;51.448;6.260;2024-02-26T12:35:12;6.30;99.90
19025;DHT22;9645;51.448;6.260;2024-02-26T12:37:40;6.60;99.90
19025;DHT22;9645;51.448;6.260;2024-02-26T12:40:09;6.40;99.90
19025;DHT22;9645;51.448;6.260;2024-02-26T12:42:36;6.50;99.90
19025;DHT22;9645;51.448;6.260;2024-02-26T12:45:06;6.70;99.90
19025;DHT22;9645;51.448;6.260;2024-02-26T12:47:38;6.50;99.90
19025;DHT22;9645;51.448;6.260;2024-02-26T12:50:06;6.50;99.90
19025;DHT22;9645;51.448;6.260;2024-02-26T12:52:34;6.40;99.90
19025;DHT22;9645;51.448;6.260;2024-02-26T12:55:03;6.40;99.90
19025;DHT22;9645;51.448;6.260;2024-02-26T12:57:32;6.40;99.90
19025;DHT22;9645;51.448;6.260;2024-02-26T13:00:00;6.50;99.90
19025;DHT22;9645;51.448;6.260;2024-02-26T13:02:30;6.50;99.90
19025;DHT22;9645;51.448;6.260;2024-02-26T13:04:57;6.50;99.90
19025;DHT22;9645;51.448;6.260;2024-02-26T13:07:27;6.60;99.90
19025;DHT22;9645;51.448;6.260;2024-02-26T13:09:54;6.50;99.90
19025;DHT22;9645;51.448;6.260;2024-02-26T13:12:23;7.00;99.90
19025;DHT22;9645;51.448;6.260;2024-02-26T13:14:59;6.50;99.90
19025;DHT22;9645;51.448;6.260;2024-02-26T13:17:26;6.50;99.90
19025;DHT22;9645;51.448;6.260;2024-02-26T13:19:53;6.40;99.90
19025;DHT22;9645;51.448;6.260;2024-02-26T13:22:21;6.40;99.90
19025;DHT22;9645;51.448;6.260;2024-02-26T13:24:53;6.40;99.90
19025;DHT22;9645;51.448;6.260;2024-02-26T13:27:23;6.60;99.90
19025;DHT22;9645;51.448;6.260;2024-02-26T13:30:02;6.40;99.90
19025;DHT22;9645;51.448;6.260;2024-02-26T13:32:32;6.70;99.90
19025;DHT22;9645;51.448;6.260;2024-02-26T13:35:06;6.40;99.90
19025;DHT22;9645;51.448;6.260;2024-02-26T13:37:34;6.40;99.90
19025;DHT22;9645;51.448;6.260;2024-02-26T13:40:04;6.40;99.90
19025;DHT22;9645;51.448;6.260;2024-02-26T13:42:32;6.40;99.90
19025;DHT22;9645;51.448;6.260;2024-02-26T13:44:59;6.30;99.90
19025;DHT22;9645;51.448;6.260;2024-02-26T13:47:26;6.30;99.90
19025;DHT22;9645;51.448;6.260;2024-02-26T13:49:56;6.40;99.90
19025;DHT22;9645;51.448;6.260;2024-02-26T13:52:23;6.30;99.90
19025;DHT22;9645;51.448;6.260;2024-02-26T13:54:51;6.30;99.90
19025;DHT22;9645;51.448;6.260;2024-02-26T13:57:19;6.50;99.90
19025;DHT22;9645;51.448;6.260;2024-02-26T13:59:48;6.80;99.90
19025;DHT22;9645;51.448;6.260;2024-02-26T14:02:15;6.30;99.90
19025;DHT22;9645;51.448;6.260;2024-02-26T14:04:42;6.30;99.90
19025;DHT22;9645;51.448;6.260;2024-02-26T14:07:11;6.30;99.90
19025;DHT22;9645;51.448;6.260;2024-02-26T14:09:41;6.30;99.90
19025;DHT22;9645;51.448;6.260;2024-02-26T14:12:09;6.30;99.90
19025;DHT22;9645;51.448;6.260;2024-02-26T14:14:37;6.30;99.90
19025;DHT22;9645;51.448;6.260;2024-02-26T14:17:07;6.80;99.90
19025;DHT22;9645;51.448;6.260;2024-02-26T14:19:34;6.40;99.90
19025;DHT22;9645;51.448;6.260;2024-02-26T14:22:01;6.50;99.90
19025;DHT22;9645;51.448;6.260;2024-02-26T14:24:28;6.30;99.90
19025;DHT22;9645;51.448;6.260;2024-02-26T14:26:55;6.40;99.90
19025;DHT22;9645;51.448;6.260;2024-02-26T14:29:22;6.30;99.90
19025;DHT22;9645;51.448;6.260;2024-02-26T14:31:49;6.40;99.90
19025;DHT22;9645;51.448;6.260;2024-02-26T14:34:20;6.40;99.90
19025;DHT22;9645;51.448;6.260;2024-02-26T14:36:48;6.40;99.90
19025;DHT22;9645;51.448;6.260;2024-02-26T14:39:16;6.40;99.90
19025;DHT22;9645;51.448;6.260;2024-02-26T14:41:45;6.40;99.90
19025;DHT22;9645;51.448;6.260;2024-02-26T14:44:15;6.40;99.90
19025;DHT22;9645;51.448;6.260;2024-02-26T14:46:44;6.30;99.90
19025;DHT22;9645;51.448;6.260;2024-02-26T14:49:11;6.10;99.90
19025;DHT22;9645;51.448;6.260;2024-02-26T14:51:40;6.30;99.90
19025;DHT22;9645;51.448;6.260;2024-02-26T14:54:07;6.20;99.90
19025;DHT22;9645;51.448;6.260;2024-02-26T14:56:34;6.30;99.90
19025;DHT22;9645;51.448;6.260;2024-02-26T14:59:02;6.20;99.90
19025;DHT22;9645;51.448;6.260;2024-02-26T15:01:29;6.30;99.90
19025;DHT22;9645;51.448;6.260;2024-02-26T15:03:58;6.10;99.90
19025;DHT22;9645;51.448;6.260;2024-02-26T15:06:28;6.20;99.90
19025;DHT22;9645;51.448;6.260;2024-02-26T15:08:57;6.20;99.90
19025;DHT22;9645;51.448;6.260;2024-02-26T15:11:24;6.20;99.90
19025;DHT22;9645;51.448;6.260;2024-02-26T15:13:52;6.20;99.90
19025;DHT22;9645;51.448;6.260;2024-02-26T15:16:20;6.20;99.90
19025;DHT22;9645;51.448;6.260;2024-02-26T15:18:48;6.20;99.90
19025;DHT22;9645;51.448;6.260;2024-02-26T15:21:15;6.10;99.90
19025;DHT22;9645;51.448;6.260;2024-02-26T15:23:43;6.10;99.90
19025;DHT22;9645;51.448;6.260;2024-02-26T15:26:12;6.00;99.90
19025;DHT22;9645;51.448;6.260;2024-02-26T15:28:40;6.10;99.90
19025;DHT22;9645;51.448;6.260;2024-02-26T15:31:07;6.00;99.90
19025;DHT22;9645;51.448;6.260;2024-02-26T15:33:34;6.10;99.90
19025;DHT22;9645;51.448;6.260;2024-02-26T15:36:01;6.10;99.90
19025;DHT22;9645;51.448;6.260;2024-02-26T15:38:28;6.10;99.90
19025;DHT22;9645;51.448;6.260;2024-02-26T15:40:55;6.10;99.90
19025;DHT22;9645;51.448;6.260;2024-02-26T15:43:23;6.00;99.90
19025;DHT22;9645;51.448;6.260;2024-02-26T15:45:50;6.00;99.90
19025;DHT22;9645;51.448;6.260;2024-02-26T15:48:17;6.00;99.90
19025;DHT22;9645;51.448;6.260;2024-02-26T15:50:44;6.10;99.90
19025;DHT22;9645;51.448;6.260;2024-02-26T15:53:11;6.00;99.90
19025;DHT22;9645;51.448;6.260;2024-02-26T15:55:38;6.10;99.90
19025;DHT22;9645;51.448;6.260;2024-02-26T15:58:08;6.10;99.90
19025;DHT22;9645;51.448;6.260;2024-02-26T16:00:40;6.00;99.90
19025;DHT22;9645;51.448;6.260;2024-02-26T16:03:07;6.00;99.90
19025;DHT22;9645;51.448;6.260;2024-02-26T16:05:34;6.10;99.90
19025;DHT22;9645;51.448;6.260;2024-02-26T16:08:05;6.10;99.90
19025;DHT22;9645;51.448;6.260;2024-02-26T16:10:33;6.00;99.90